SVMC

La Chinita International Airport

Maracaibo, Venezuela
TAF SVMC 212200Z 2200/2300 36010KT 9999 FEW013 BKN070 TX35/19Z TN24/09Z TEMPO 2300/2306 00000KT 9000 -DZ FEW013CB BKN080
Issued Valid From Valid To
Jan-21 @ 22:00 UTC
(3 hours ago)
Jan-22 @ 00:00 UTC
(42 minutes ago)
Jan-23 @ 00:00 UTC
(in 23 hours)
Jan-22 @ 00:00 to Jan-23 @ 00:00
TAF SVMC 212200Z 2200/2300 36010KT 9999 FEW013 BKN070 TX35/19Z TN24/09Z
Wind Visibility Clouds
360° at 10 knots 10,000+ meters
  • Few at 1,300' AGL
  • Broken at 7,000' AGL
Temporary Jan-23 @ 00:00 to Jan-23 @ 06:00
TEMPO 2300/2306 00000KT 9000 -DZ FEW013CB BKN080
Visibility Clouds Conditions
8,996 meters
  • Few at 1,300' AGL
  • Broken at 8,000' AGL
  • Light Drizzle
TAF SVMC 212200Z 2200/2300 36010KT 9999 FEW013 BKN070 TX35/19Z TN24/09Z TEMPO 2300/2306 00000KT 9000 -DZ FEW013CB BKN080
Issued Jan-21 @ 22:00 UTC
(3 hours ago)
Valid From Jan-22 @ 00:00 UTC
(42 minutes ago)
Valid To Jan-23 @ 00:00 UTC
(in 23 hours)
Jan-22 @ 00:00 - Jan-23 @ 00:00
Wind Visibility
360° at 10 knots 10,000+ meters
Clouds
  • Few at 1,300' AGL
  • Broken at 7,000' AGL
Temporary Jan-23 @ 00:00 - Jan-23 @ 06:00
Clouds
  • Few at 1,300' AGL
  • Broken at 8,000' AGL
Conditions
  • Light Drizzle